sensor_id;sensor_type;location;lat;lon;timestamp;pressure;altitude;pressure_sealevel;temperature;humidity
20971;BME280;10644;48.834;10.088;2022-10-26T00:02:36;96732.19;;;16.63;61.74
20971;BME280;10644;48.834;10.088;2022-10-26T00:05:04;96740.50;;;16.78;61.45
20971;BME280;10644;48.834;10.088;2022-10-26T00:07:35;96722.16;;;16.92;60.96
20971;BME280;10644;48.834;10.088;2022-10-26T00:10:05;96733.88;;;17.07;60.80
20971;BME280;10644;48.834;10.088;2022-10-26T00:12:42;96721.91;;;16.95;61.02
20971;BME280;10644;48.834;10.088;2022-10-26T00:15:08;96711.56;;;16.95;60.70
20971;BME280;10644;48.834;10.088;2022-10-26T00:17:49;96712.03;;;16.89;61.18
20971;BME280;10644;48.834;10.088;2022-10-26T00:20:20;96695.34;;;16.82;61.27
20971;BME280;10644;48.834;10.088;2022-10-26T00:22:54;96712.28;;;16.86;60.91
20971;BME280;10644;48.834;10.088;2022-10-26T00:25:28;96722.38;;;16.89;60.95
20971;BME280;10644;48.834;10.088;2022-10-26T00:28:17;96724.03;;;16.90;61.00
20971;BME280;10644;48.834;10.088;2022-10-26T00:30:44;96726.88;;;16.76;61.33
20971;BME280;10644;48.834;10.088;2022-10-26T00:33:12;96721.59;;;16.77;61.37
20971;BME280;10644;48.834;10.088;2022-10-26T00:35:53;96725.47;;;16.83;61.17
20971;BME280;10644;48.834;10.088;2022-10-26T00:38:21;96739.44;;;16.91;60.92
20971;BME280;10644;48.834;10.088;2022-10-26T00:40:47;96734.84;;;16.95;61.10
20971;BME280;10644;48.834;10.088;2022-10-26T00:45:57;96719.72;;;17.22;60.75
20971;BME280;10644;48.834;10.088;2022-10-26T00:48:43;96725.03;;;17.20;60.48
20971;BME280;10644;48.834;10.088;2022-10-26T00:54:36;96727.97;;;17.27;60.16
20971;BME280;10644;48.834;10.088;2022-10-26T00:57:12;96721.06;;;17.16;60.66
20971;BME280;10644;48.834;10.088;2022-10-26T00:59:39;96722.44;;;17.20;60.74
20971;BME280;10644;48.834;10.088;2022-10-26T01:02:07;96727.31;;;17.14;61.02
20971;BME280;10644;48.834;10.088;2022-10-26T01:04:33;96729.94;;;16.92;61.53
20971;BME280;10644;48.834;10.088;2022-10-26T01:07:00;96724.97;;;16.89;61.92
20971;BME280;10644;48.834;10.088;2022-10-26T01:09:35;96723.09;;;17.02;61.34
20971;BME280;10644;48.834;10.088;2022-10-26T01:12:00;96719.34;;;16.84;61.94
20971;BME280;10644;48.834;10.088;2022-10-26T01:14:27;96726.66;;;16.68;62.52
20971;BME280;10644;48.834;10.088;2022-10-26T01:20:48;96724.78;;;16.70;62.37
20971;BME280;10644;48.834;10.088;2022-10-26T01:23:55;96712.53;;;16.72;62.57
20971;BME280;10644;48.834;10.088;2022-10-26T01:26:42;96716.53;;;16.76;62.26
20971;BME280;10644;48.834;10.088;2022-10-26T01:32:13;96706.66;;;16.70;62.54
20971;BME280;10644;48.834;10.088;2022-10-26T01:37:23;96702.16;;;16.94;61.90
20971;BME280;10644;48.834;10.088;2022-10-26T01:40:02;96703.81;;;16.84;62.14
20971;BME280;10644;48.834;10.088;2022-10-26T01:42:33;96706.84;;;17.00;62.05
20971;BME280;10644;48.834;10.088;2022-10-26T01:45:06;96714.78;;;16.87;62.11
20971;BME280;10644;48.834;10.088;2022-10-26T01:47:44;96713.81;;;16.88;62.27
20971;BME280;10644;48.834;10.088;2022-10-26T01:50:12;96721.09;;;16.94;62.29
20971;BME280;10644;48.834;10.088;2022-10-26T01:52:38;96716.25;;;17.01;62.13
20971;BME280;10644;48.834;10.088;2022-10-26T02:00:58;96701.47;;;16.81;62.95
20971;BME280;10644;48.834;10.088;2022-10-26T02:12:37;96688.69;;;16.57;64.25
20971;BME280;10644;48.834;10.088;2022-10-26T02:15:25;96686.56;;;16.62;63.91
20971;BME280;10644;48.834;10.088;2022-10-26T02:20:52;96683.09;;;16.84;63.74
20971;BME280;10644;48.834;10.088;2022-10-26T02:23:23;96674.94;;;16.57;64.07
20971;BME280;10644;48.834;10.088;2022-10-26T02:25:56;96677.97;;;16.62;63.89
20971;BME280;10644;48.834;10.088;2022-10-26T02:28:32;96667.03;;;16.58;64.14
20971;BME280;10644;48.834;10.088;2022-10-26T02:31:06;96667.88;;;16.59;64.33
20971;BME280;10644;48.834;10.088;2022-10-26T02:33:37;96664.56;;;16.24;65.45
20971;BME280;10644;48.834;10.088;2022-10-26T02:36:06;96672.41;;;15.89;66.25
20971;BME280;10644;48.834;10.088;2022-10-26T02:38:34;96675.56;;;15.82;66.94
20971;BME280;10644;48.834;10.088;2022-10-26T02:41:03;96682.06;;;15.98;66.51
20971;BME280;10644;48.834;10.088;2022-10-26T02:43:35;96674.66;;;16.38;65.20
20971;BME280;10644;48.834;10.088;2022-10-26T02:46:12;96674.22;;;16.55;64.46
20971;BME280;10644;48.834;10.088;2022-10-26T02:49:17;96669.31;;;16.41;65.22
20971;BME280;10644;48.834;10.088;2022-10-26T02:57:38;96654.38;;;16.44;65.31
20971;BME280;10644;48.834;10.088;2022-10-26T03:00:14;96653.50;;;16.33;65.84
20971;BME280;10644;48.834;10.088;2022-10-26T03:02:44;96668.66;;;15.93;67.15
20971;BME280;10644;48.834;10.088;2022-10-26T03:05:27;96665.38;;;16.35;65.57
20971;BME280;10644;48.834;10.088;2022-10-26T03:07:54;96671.88;;;16.63;64.41
20971;BME280;10644;48.834;10.088;2022-10-26T03:10:24;96673.97;;;16.69;64.29
20971;BME280;10644;48.834;10.088;2022-10-26T03:12:50;96675.72;;;16.35;65.55
20971;BME280;10644;48.834;10.088;2022-10-26T03:15:16;96681.03;;;16.23;66.32
20971;BME280;10644;48.834;10.088;2022-10-26T03:17:47;96682.53;;;16.25;65.99
20971;BME280;10644;48.834;10.088;2022-10-26T03:20:17;96686.41;;;16.20;66.13
20971;BME280;10644;48.834;10.088;2022-10-26T03:22:46;96679.72;;;16.28;65.71
20971;BME280;10644;48.834;10.088;2022-10-26T03:25:12;96688.34;;;16.51;65.36
20971;BME280;10644;48.834;10.088;2022-10-26T03:27:53;96701.50;;;16.70;64.98
20971;BME280;10644;48.834;10.088;2022-10-26T03:30:20;96700.53;;;16.82;64.40
20971;BME280;10644;48.834;10.088;2022-10-26T03:32:54;96701.84;;;16.76;64.78
20971;BME280;10644;48.834;10.088;2022-10-26T03:35:40;96712.03;;;16.89;64.07
20971;BME280;10644;48.834;10.088;2022-10-26T03:38:05;96704.28;;;16.78;64.47
20971;BME280;10644;48.834;10.088;2022-10-26T03:40:36;96712.63;;;16.81;64.34
20971;BME280;10644;48.834;10.088;2022-10-26T03:43:13;96716.78;;;16.40;65.88
20971;BME280;10644;48.834;10.088;2022-10-26T03:45:44;96716.53;;;16.54;65.53
20971;BME280;10644;48.834;10.088;2022-10-26T03:48:10;96722.66;;;16.75;64.93
20971;BME280;10644;48.834;10.088;2022-10-26T03:50:36;96722.63;;;16.97;64.26
20971;BME280;10644;48.834;10.088;2022-10-26T03:53:10;96729.16;;;17.12;63.59
20971;BME280;10644;48.834;10.088;2022-10-26T03:55:35;96734.31;;;17.23;63.21
20971;BME280;10644;48.834;10.088;2022-10-26T03:58:02;96729.09;;;17.34;63.18
20971;BME280;10644;48.834;10.088;2022-10-26T04:00:27;96731.72;;;17.23;62.71
20971;BME280;10644;48.834;10.088;2022-10-26T04:02:56;96726.56;;;17.23;62.88
20971;BME280;10644;48.834;10.088;2022-10-26T04:05:23;96739.72;;;17.31;62.81
20971;BME280;10644;48.834;10.088;2022-10-26T04:07:59;96731.56;;;17.04;62.85
20971;BME280;10644;48.834;10.088;2022-10-26T04:10:28;96736.44;;;17.18;62.69
20971;BME280;10644;48.834;10.088;2022-10-26T04:13:00;96733.13;;;17.27;62.51
20971;BME280;10644;48.834;10.088;2022-10-26T04:15:45;96742.09;;;17.12;62.90
20971;BME280;10644;48.834;10.088;2022-10-26T04:18:20;96739.78;;;17.09;63.35
20971;BME280;10644;48.834;10.088;2022-10-26T04:20:51;96743.81;;;17.02;63.44
20971;BME280;10644;48.834;10.088;2022-10-26T04:23:33;96748.06;;;16.59;64.71
20971;BME280;10644;48.834;10.088;2022-10-26T04:26:10;96749.22;;;16.66;64.40
20971;BME280;10644;48.834;10.088;2022-10-26T04:28:36;96755.72;;;16.71;64.55
20971;BME280;10644;48.834;10.088;2022-10-26T04:31:02;96768.97;;;16.78;64.44
20971;BME280;10644;48.834;10.088;2022-10-26T04:33:37;96769.91;;;16.99;63.96
20971;BME280;10644;48.834;10.088;2022-10-26T04:36:03;96766.63;;;16.97;64.02
20971;BME280;10644;48.834;10.088;2022-10-26T04:38:29;96765.69;;;16.87;64.05
20971;BME280;10644;48.834;10.088;2022-10-26T04:40:55;96755.09;;;16.90;63.97
20971;BME280;10644;48.834;10.088;2022-10-26T04:43:23;96752.75;;;16.98;64.23
20971;BME280;10644;48.834;10.088;2022-10-26T04:45:57;96750.81;;;17.11;63.40
20971;BME280;10644;48.834;10.088;2022-10-26T04:48:28;96747.78;;;16.84;63.47
20971;BME280;10644;48.834;10.088;2022-10-26T04:50:59;96751.34;;;16.72;64.00
20971;BME280;10644;48.834;10.088;2022-10-26T04:53:25;96744.41;;;16.72;64.11
20971;BME280;10644;48.834;10.088;2022-10-26T04:55:59;96742.88;;;16.48;64.35
20971;BME280;10644;48.834;10.088;2022-10-26T04:58:27;96734.44;;;16.68;63.73
20971;BME280;10644;48.834;10.088;2022-10-26T05:00:55;96723.84;;;16.60;64.21
20971;BME280;10644;48.834;10.088;2022-10-26T05:03:20;96720.53;;;16.80;63.36
20971;BME280;10644;48.834;10.088;2022-10-26T05:05:52;96704.66;;;16.62;64.32
20971;BME280;10644;48.834;10.088;2022-10-26T05:08:28;96675.59;;;16.81;63.36
20971;BME280;10644;48.834;10.088;2022-10-26T05:10:54;96684.53;;;16.88;63.07
20971;BME280;10644;48.834;10.088;2022-10-26T05:13:27;96690.88;;;16.73;63.73
20971;BME280;10644;48.834;10.088;2022-10-26T05:16:02;96697.13;;;16.70;64.05
20971;BME280;10644;48.834;10.088;2022-10-26T05:18:30;96684.53;;;16.77;64.03
20971;BME280;10644;48.834;10.088;2022-10-26T05:20:59;96713.69;;;16.90;63.93
20971;BME280;10644;48.834;10.088;2022-10-26T05:23:30;96728.84;;;17.05;63.54
20971;BME280;10644;48.834;10.088;2022-10-26T05:25:56;96727.78;;;17.08;63.53
20971;BME280;10644;48.834;10.088;2022-10-26T05:28:21;96731.06;;;17.10;63.43
20971;BME280;10644;48.834;10.088;2022-10-26T05:30:49;96735.84;;;17.25;63.02
20971;BME280;10644;48.834;10.088;2022-10-26T05:33:23;96737.81;;;17.44;62.79
20971;BME280;10644;48.834;10.088;2022-10-26T05:35:55;96733.34;;;17.46;63.06
20971;BME280;10644;48.834;10.088;2022-10-26T05:38:20;96739.97;;;17.39;63.29
20971;BME280;10644;48.834;10.088;2022-10-26T05:40:47;96735.69;;;17.49;63.45
20971;BME280;10644;48.834;10.088;2022-10-26T05:43:13;96739.50;;;17.65;63.41
20971;BME280;10644;48.834;10.088;2022-10-26T05:45:39;96745.31;;;17.58;63.38
20971;BME280;10644;48.834;10.088;2022-10-26T05:48:04;96754.31;;;17.43;64.35
20971;BME280;10644;48.834;10.088;2022-10-26T05:50:31;96759.00;;;17.49;64.33
20971;BME280;10644;48.834;10.088;2022-10-26T05:52:58;96755.97;;;17.22;65.29
20971;BME280;10644;48.834;10.088;2022-10-26T05:55:24;96769.84;;;17.32;65.15
20971;BME280;10644;48.834;10.088;2022-10-26T05:57:50;96758.09;;;17.28;64.68
20971;BME280;10644;48.834;10.088;2022-10-26T06:03:07;96763.63;;;17.23;64.48
20971;BME280;10644;48.834;10.088;2022-10-26T06:05:58;96763.97;;;17.30;64.20
20971;BME280;10644;48.834;10.088;2022-10-26T06:08:28;96761.91;;;17.13;64.76
20971;BME280;10644;48.834;10.088;2022-10-26T06:10:55;96767.53;;;17.07;64.74
20971;BME280;10644;48.834;10.088;2022-10-26T06:13:21;96772.25;;;17.13;64.52
20971;BME280;10644;48.834;10.088;2022-10-26T06:16:08;96772.72;;;17.07;64.64
20971;BME280;10644;48.834;10.088;2022-10-26T06:21:45;96778.25;;;16.80;65.68
20971;BME280;10644;48.834;10.088;2022-10-26T06:24:25;96778.25;;;16.91;65.26
20971;BME280;10644;48.834;10.088;2022-10-26T06:30:07;96783.78;;;16.98;65.46
20971;BME280;10644;48.834;10.088;2022-10-26T06:32:37;96790.13;;;17.05;65.09
20971;BME280;10644;48.834;10.088;2022-10-26T06:38:01;96796.38;;;16.80;65.81
20971;BME280;10644;48.834;10.088;2022-10-26T06:40:32;96800.75;;;17.02;64.66
20971;BME280;10644;48.834;10.088;2022-10-26T06:43:01;96800.84;;;17.11;64.45
20971;BME280;10644;48.834;10.088;2022-10-26T06:45:27;96798.13;;;17.24;64.27
20971;BME280;10644;48.834;10.088;2022-10-26T06:48:17;96813.31;;;16.95;65.50
20971;BME280;10644;48.834;10.088;2022-10-26T06:50:49;96818.13;;;17.00;65.22
20971;BME280;10644;48.834;10.088;2022-10-26T06:55:49;96819.28;;;17.18;64.74
20971;BME280;10644;48.834;10.088;2022-10-26T06:58:17;96821.06;;;17.17;64.61
20971;BME280;10644;48.834;10.088;2022-10-26T07:00:51;96823.91;;;17.03;65.05
20971;BME280;10644;48.834;10.088;2022-10-26T07:03:17;96816.28;;;17.02;65.53
20971;BME280;10644;48.834;10.088;2022-10-26T07:05:43;96822.13;;;16.71;66.50
20971;BME280;10644;48.834;10.088;2022-10-26T07:08:09;96822.81;;;16.73;66.59
20971;BME280;10644;48.834;10.088;2022-10-26T07:10:37;96833.63;;;16.56;67.23
20971;BME280;10644;48.834;10.088;2022-10-26T07:13:05;96827.44;;;16.80;66.50
20971;BME280;10644;48.834;10.088;2022-10-26T07:15:31;96845.19;;;17.07;65.67
20971;BME280;10644;48.834;10.088;2022-10-26T07:17:57;96845.66;;;17.23;64.69
20971;BME280;10644;48.834;10.088;2022-10-26T07:20:22;96850.72;;;17.13;64.78
20971;BME280;10644;48.834;10.088;2022-10-26T07:22:55;96856.00;;;17.34;64.60
20971;BME280;10644;48.834;10.088;2022-10-26T07:25:24;96860.97;;;17.48;64.55
20971;BME280;10644;48.834;10.088;2022-10-26T07:27:50;96874.13;;;17.56;64.01
20971;BME280;10644;48.834;10.088;2022-10-26T07:30:20;96870.25;;;17.61;64.77
20971;BME280;10644;48.834;10.088;2022-10-26T07:32:48;96871.31;;;17.70;63.87
20971;BME280;10644;48.834;10.088;2022-10-26T07:35:13;96879.06;;;17.81;64.19
20971;BME280;10644;48.834;10.088;2022-10-26T07:37:39;96874.53;;;17.94;63.64
20971;BME280;10644;48.834;10.088;2022-10-26T07:40:07;96879.22;;;18.00;63.52
20971;BME280;10644;48.834;10.088;2022-10-26T07:42:36;96887.69;;;18.02;63.97
20971;BME280;10644;48.834;10.088;2022-10-26T07:45:03;96892.41;;;17.97;63.81
20971;BME280;10644;48.834;10.088;2022-10-26T07:47:40;96887.03;;;17.89;64.31
20971;BME280;10644;48.834;10.088;2022-10-26T07:50:05;96890.00;;;17.73;65.00
20971;BME280;10644;48.834;10.088;2022-10-26T07:52:34;96882.50;;;17.48;65.44
20971;BME280;10644;48.834;10.088;2022-10-26T07:55:02;96891.31;;;17.35;66.14
20971;BME280;10644;48.834;10.088;2022-10-26T07:57:27;96894.63;;;17.26;66.77
20971;BME280;10644;48.834;10.088;2022-10-26T07:59:58;96888.97;;;17.21;67.17
20971;BME280;10644;48.834;10.088;2022-10-26T08:02:30;96898.63;;;17.30;66.70
20971;BME280;10644;48.834;10.088;2022-10-26T08:04:56;96886.88;;;17.48;66.52
20971;BME280;10644;48.834;10.088;2022-10-26T08:07:39;96891.09;;;17.60;65.67
20971;BME280;10644;48.834;10.088;2022-10-26T08:10:05;96888.84;;;17.66;66.30
20971;BME280;10644;48.834;10.088;2022-10-26T08:12:33;96897.09;;;17.60;66.34
20971;BME280;10644;48.834;10.088;2022-10-26T08:14:58;96891.91;;;17.60;66.45
20971;BME280;10644;48.834;10.088;2022-10-26T08:17:24;96889.91;;;17.75;66.42
20971;BME280;10644;48.834;10.088;2022-10-26T08:19:49;96896.69;;;17.98;65.71
20971;BME280;10644;48.834;10.088;2022-10-26T08:22:15;96892.88;;;18.02;65.95
20971;BME280;10644;48.834;10.088;2022-10-26T08:24:47;96902.63;;;18.09;65.44
20971;BME280;10644;48.834;10.088;2022-10-26T08:27:13;96891.16;;;18.23;65.43
20971;BME280;10644;48.834;10.088;2022-10-26T08:29:41;96885.94;;;18.34;65.25
20971;BME280;10644;48.834;10.088;2022-10-26T08:32:08;96893.91;;;18.42;65.15
20971;BME280;10644;48.834;10.088;2022-10-26T08:34:39;96899.22;;;18.51;64.70
20971;BME280;10644;48.834;10.088;2022-10-26T08:37:07;96890.06;;;18.57;64.57
20971;BME280;10644;48.834;10.088;2022-10-26T08:39:34;96894.75;;;18.63;64.42
20971;BME280;10644;48.834;10.088;2022-10-26T08:42:37;96897.81;;;18.68;64.29
20971;BME280;10644;48.834;10.088;2022-10-26T08:45:23;96904.13;;;18.75;64.46
20971;BME280;10644;48.834;10.088;2022-10-26T08:47:54;96902.75;;;18.71;64.16
20971;BME280;10644;48.834;10.088;2022-10-26T08:50:31;96914.28;;;18.78;64.46
20971;BME280;10644;48.834;10.088;2022-10-26T08:55:52;96910.91;;;18.87;64.79
20971;BME280;10644;48.834;10.088;2022-10-26T08:58:31;96908.63;;;18.73;65.12
20971;BME280;10644;48.834;10.088;2022-10-26T09:01:15;96914.63;;;18.53;66.11
20971;BME280;10644;48.834;10.088;2022-10-26T09:03:41;96906.72;;;18.54;66.09
20971;BME280;10644;48.834;10.088;2022-10-26T09:14:58;96913.31;;;18.79;65.96
20971;BME280;10644;48.834;10.088;2022-10-26T09:17:47;96903.44;;;18.93;65.67
20971;BME280;10644;48.834;10.088;2022-10-26T09:26:13;96907.16;;;19.00;64.97
20971;BME280;10644;48.834;10.088;2022-10-26T09:28:43;96923.81;;;18.98;65.16
20971;BME280;10644;48.834;10.088;2022-10-26T09:31:15;96917.88;;;18.86;65.61
20971;BME280;10644;48.834;10.088;2022-10-26T09:33:41;96930.81;;;18.77;66.40
20971;BME280;10644;48.834;10.088;2022-10-26T09:39:18;96930.78;;;18.97;65.99
20971;BME280;10644;48.834;10.088;2022-10-26T09:41:55;96932.09;;;18.92;66.41
20971;BME280;10644;48.834;10.088;2022-10-26T09:47:49;96940.00;;;19.22;65.89
20971;BME280;10644;48.834;10.088;2022-10-26T09:50:46;96947.00;;;19.31;65.60
20971;BME280;10644;48.834;10.088;2022-10-26T09:53:25;96943.72;;;19.29;65.65
20971;BME280;10644;48.834;10.088;2022-10-26T09:59:02;96956.34;;;19.43;65.61
20971;BME280;10644;48.834;10.088;2022-10-26T10:01:41;96960.91;;;19.50;65.28
20971;BME280;10644;48.834;10.088;2022-10-26T10:04:20;96958.41;;;19.49;65.26
20971;BME280;10644;48.834;10.088;2022-10-26T10:12:52;96960.69;;;19.63;65.47
20971;BME280;10644;48.834;10.088;2022-10-26T10:15:23;96957.88;;;19.75;65.09
20971;BME280;10644;48.834;10.088;2022-10-26T10:18:17;96974.34;;;19.95;64.68
20971;BME280;10644;48.834;10.088;2022-10-26T10:20:51;96967.38;;;20.05;64.79
20971;BME280;10644;48.834;10.088;2022-10-26T10:26:57;96978.94;;;20.12;64.03
20971;BME280;10644;48.834;10.088;2022-10-26T10:29:39;96978.63;;;20.05;64.22
20971;BME280;10644;48.834;10.088;2022-10-26T10:32:34;96979.44;;;20.06;63.46
20971;BME280;10644;48.834;10.088;2022-10-26T10:35:47;96988.81;;;20.18;63.23
20971;BME280;10644;48.834;10.088;2022-10-26T10:38:27;97000.19;;;20.17;61.87
20971;BME280;10644;48.834;10.088;2022-10-26T10:40:57;96986.78;;;20.31;61.94
20971;BME280;10644;48.834;10.088;2022-10-26T10:43:24;96989.53;;;20.39;61.52
20971;BME280;10644;48.834;10.088;2022-10-26T10:45:56;96990.53;;;20.66;61.16
20971;BME280;10644;48.834;10.088;2022-10-26T10:48:31;96984.75;;;20.82;60.54
20971;BME280;10644;48.834;10.088;2022-10-26T10:51:07;96986.25;;;20.84;60.07
20971;BME280;10644;48.834;10.088;2022-10-26T11:07:26;96975.56;;;22.25;56.20
20971;BME280;10644;48.834;10.088;2022-10-26T11:09:54;96984.50;;;22.50;56.10
20971;BME280;10644;48.834;10.088;2022-10-26T11:12:30;96989.94;;;22.74;55.20
20971;BME280;10644;48.834;10.088;2022-10-26T11:15:15;96995.09;;;23.01;54.20
20971;BME280;10644;48.834;10.088;2022-10-26T11:18:03;96989.81;;;22.93;53.32
20971;BME280;10644;48.834;10.088;2022-10-26T11:20:38;96985.06;;;23.14;52.55
20971;BME280;10644;48.834;10.088;2022-10-26T11:23:24;96983.56;;;23.29;52.69
20971;BME280;10644;48.834;10.088;2022-10-26T11:26:13;96985.28;;;23.38;52.37
20971;BME280;10644;48.834;10.088;2022-10-26T11:31:46;97000.38;;;23.52;52.32
20971;BME280;10644;48.834;10.088;2022-10-26T11:34:35;96992.75;;;23.58;51.81
20971;BME280;10644;48.834;10.088;2022-10-26T11:37:31;96998.50;;;23.62;51.34
20971;BME280;10644;48.834;10.088;2022-10-26T11:43:44;96991.97;;;23.91;51.72
20971;BME280;10644;48.834;10.088;2022-10-26T11:46:22;96988.63;;;24.15;50.73
20971;BME280;10644;48.834;10.088;2022-10-26T11:51:58;96991.41;;;24.71;49.49
20971;BME280;10644;48.834;10.088;2022-10-26T11:54:33;97003.72;;;24.78;49.26
20971;BME280;10644;48.834;10.088;2022-10-26T11:57:04;96999.81;;;24.82;48.53
20971;BME280;10644;48.834;10.088;2022-10-26T11:59:44;97001.63;;;24.90;48.08
20971;BME280;10644;48.834;10.088;2022-10-26T12:02:19;97005.88;;;24.99;48.98
20971;BME280;10644;48.834;10.088;2022-10-26T12:04:59;97007.19;;;24.95;48.28
20971;BME280;10644;48.834;10.088;2022-10-26T12:08:32;97019.66;;;25.09;47.87
20971;BME280;10644;48.834;10.088;2022-10-26T12:10:42;97016.19;;;24.84;48.08
20971;BME280;10644;48.834;10.088;2022-10-26T12:13:26;97016.59;;;24.56;48.75
20971;BME280;10644;48.834;10.088;2022-10-26T12:19:07;97021.81;;;24.48;48.62
20971;BME280;10644;48.834;10.088;2022-10-26T12:21:49;97017.97;;;24.68;49.23
20971;BME280;10644;48.834;10.088;2022-10-26T12:33:28;97040.56;;;24.69;49.33
20971;BME280;10644;48.834;10.088;2022-10-26T12:35:56;97031.09;;;24.92;48.32
20971;BME280;10644;48.834;10.088;2022-10-26T12:41:17;97041.25;;;24.79;48.16
20971;BME280;10644;48.834;10.088;2022-10-26T12:43:48;97036.31;;;24.76;48.29
20971;BME280;10644;48.834;10.088;2022-10-26T12:48:49;97046.94;;;24.25;49.22
20971;BME280;10644;48.834;10.088;2022-10-26T12:51:52;97037.41;;;24.16;49.72
20971;BME280;10644;48.834;10.088;2022-10-26T12:54:56;97048.41;;;24.19;49.96
20971;BME280;10644;48.834;10.088;2022-10-26T13:00:25;97061.66;;;24.26;49.95
20971;BME280;10644;48.834;10.088;2022-10-26T13:08:50;97059.47;;;24.39;49.89
20971;BME280;10644;48.834;10.088;2022-10-26T13:11:28;97058.75;;;24.29;49.85
20971;BME280;10644;48.834;10.088;2022-10-26T13:14:00;97063.16;;;24.28;49.48
20971;BME280;10644;48.834;10.088;2022-10-26T13:16:44;97061.72;;;24.34;49.90
20971;BME280;10644;48.834;10.088;2022-10-26T13:19:41;97065.91;;;24.19;49.68
20971;BME280;10644;48.834;10.088;2022-10-26T13:22:12;97070.19;;;23.94;50.32
20971;BME280;10644;48.834;10.088;2022-10-26T13:24:48;97073.69;;;24.03;50.16
20971;BME280;10644;48.834;10.088;2022-10-26T13:30:26;97079.25;;;23.82;50.57
20971;BME280;10644;48.834;10.088;2022-10-26T13:33:05;97074.25;;;23.89;50.42
20971;BME280;10644;48.834;10.088;2022-10-26T13:35:41;97075.00;;;23.81;50.71
20971;BME280;10644;48.834;10.088;2022-10-26T13:38:18;97078.88;;;23.77;51.04
20971;BME280;10644;48.834;10.088;2022-10-26T13:41:04;97078.34;;;23.66;51.54
20971;BME280;10644;48.834;10.088;2022-10-26T13:43:40;97075.03;;;23.64;51.62
20971;BME280;10644;48.834;10.088;2022-10-26T13:46:21;97080.97;;;23.66;51.41
20971;BME280;10644;48.834;10.088;2022-10-26T13:48:50;97076.41;;;23.76;51.15
20971;BME280;10644;48.834;10.088;2022-10-26T13:51:42;97088.84;;;23.91;51.00
20971;BME280;10644;48.834;10.088;2022-10-26T13:57:20;97089.00;;;23.90;51.09
20971;BME280;10644;48.834;10.088;2022-10-26T13:59:47;97091.22;;;23.85;51.05
20971;BME280;10644;48.834;10.088;2022-10-26T14:02:26;97092.34;;;23.82;51.25
20971;BME280;10644;48.834;10.088;2022-10-26T14:05:15;97098.41;;;23.83;51.56
20971;BME280;10644;48.834;10.088;2022-10-26T14:08:01;97099.91;;;23.85;51.24
20971;BME280;10644;48.834;10.088;2022-10-26T14:10:33;97107.22;;;23.82;50.70
20971;BME280;10644;48.834;10.088;2022-10-26T14:13:06;97117.22;;;23.61;51.23
20971;BME280;10644;48.834;10.088;2022-10-26T14:15:35;97106.78;;;23.43;51.67
20971;BME280;10644;48.834;10.088;2022-10-26T14:18:16;97115.22;;;23.55;51.57
20971;BME280;10644;48.834;10.088;2022-10-26T14:20:48;97111.75;;;23.72;51.27
20971;BME280;10644;48.834;10.088;2022-10-26T14:26:05;97098.69;;;23.80;51.22
20971;BME280;10644;48.834;10.088;2022-10-26T14:28:46;97105.22;;;23.93;50.85
20971;BME280;10644;48.834;10.088;2022-10-26T14:31:34;97104.38;;;23.93;50.57
20971;BME280;10644;48.834;10.088;2022-10-26T14:34:09;97121.59;;;23.78;50.92
20971;BME280;10644;48.834;10.088;2022-10-26T14:36:54;97114.97;;;23.66;51.31
20971;BME280;10644;48.834;10.088;2022-10-26T14:41:58;97125.91;;;23.87;51.00
20971;BME280;10644;48.834;10.088;2022-10-26T14:44:27;97128.31;;;23.98;50.93
20971;BME280;10644;48.834;10.088;2022-10-26T14:46:59;97124.50;;;24.18;50.35
20971;BME280;10644;48.834;10.088;2022-10-26T14:49:29;97122.59;;;24.28;50.19
20971;BME280;10644;48.834;10.088;2022-10-26T14:51:59;97125.28;;;24.44;49.86
20971;BME280;10644;48.834;10.088;2022-10-26T14:54:35;97133.81;;;24.46;49.15
20971;BME280;10644;48.834;10.088;2022-10-26T14:57:02;97128.19;;;24.58;49.09
20971;BME280;10644;48.834;10.088;2022-10-26T14:59:32;97127.03;;;24.61;48.77
20971;BME280;10644;48.834;10.088;2022-10-26T15:02:11;97130.09;;;24.56;49.30
20971;BME280;10644;48.834;10.088;2022-10-26T15:05:00;97129.59;;;24.53;49.28
20971;BME280;10644;48.834;10.088;2022-10-26T15:07:36;97132.84;;;24.55;49.46
20971;BME280;10644;48.834;10.088;2022-10-26T15:10:03;97135.88;;;24.60;48.97
20971;BME280;10644;48.834;10.088;2022-10-26T15:12:37;97136.38;;;24.63;49.17
20971;BME280;10644;48.834;10.088;2022-10-26T15:20:21;97139.97;;;24.62;48.92
20971;BME280;10644;48.834;10.088;2022-10-26T15:22:58;97136.91;;;24.67;48.77
20971;BME280;10644;48.834;10.088;2022-10-26T15:25:29;97151.28;;;24.63;48.59
20971;BME280;10644;48.834;10.088;2022-10-26T15:28:11;97153.91;;;24.37;49.38
20971;BME280;10644;48.834;10.088;2022-10-26T15:31:28;97149.81;;;24.09;49.70
20971;BME280;10644;48.834;10.088;2022-10-26T15:36:31;97157.31;;;23.87;50.17
20971;BME280;10644;48.834;10.088;2022-10-26T15:39:01;97164.50;;;23.85;50.29
20971;BME280;10644;48.834;10.088;2022-10-26T15:41:44;97159.72;;;23.98;50.40
20971;BME280;10644;48.834;10.088;2022-10-26T15:44:13;97169.75;;;24.02;50.02
20971;BME280;10644;48.834;10.088;2022-10-26T15:46:40;97164.94;;;23.98;50.25
20971;BME280;10644;48.834;10.088;2022-10-26T15:49:14;97172.91;;;23.88;50.00
20971;BME280;10644;48.834;10.088;2022-10-26T15:51:43;97174.09;;;23.94;50.44
20971;BME280;10644;48.834;10.088;2022-10-26T15:54:08;97176.34;;;23.89;50.44
20971;BME280;10644;48.834;10.088;2022-10-26T15:56:35;97182.41;;;23.72;51.10
20971;BME280;10644;48.834;10.088;2022-10-26T15:59:14;97177.59;;;23.67;51.33
20971;BME280;10644;48.834;10.088;2022-10-26T16:01:40;97181.44;;;23.38;51.93
20971;BME280;10644;48.834;10.088;2022-10-26T16:04:11;97186.00;;;23.09;52.79